createdAt,value
2022-11-15T00:00:47.280Z,22.10
2022-11-15T00:01:47.308Z,25.40
2022-11-15T00:02:47.327Z,17.90
2022-11-15T00:03:47.255Z,22.10
2022-11-15T00:04:47.234Z,20.30
2022-11-15T00:05:47.227Z,21.10
2022-11-15T00:06:47.280Z,21.80
2022-11-15T00:07:55.720Z,23.40
2022-11-15T00:08:47.212Z,20.30
2022-11-15T00:09:47.195Z,21.00
2022-11-15T00:10:47.177Z,20.20
2022-11-15T00:11:47.176Z,21.00
2022-11-15T00:12:47.159Z,19.00
2022-11-15T00:13:47.164Z,25.90
2022-11-15T00:14:47.134Z,22.70
2022-11-15T00:15:47.127Z,20.50
2022-11-15T00:16:47.117Z,21.60
2022-11-15T00:17:47.098Z,21.90
2022-11-15T00:18:50.578Z,24.30
2022-11-15T00:19:47.126Z,23.20
2022-11-15T00:20:47.080Z,24.80
2022-11-15T00:21:47.080Z,23.00
2022-11-15T00:22:47.059Z,23.10
2022-11-15T00:23:47.055Z,20.90
2022-11-15T00:24:47.041Z,19.20
2022-11-15T00:25:47.010Z,18.00
2022-11-15T00:26:47.030Z,22.40
2022-11-15T00:27:46.997Z,21.80
2022-11-15T00:28:47.037Z,24.00
2022-11-15T00:29:47.001Z,18.00
2022-11-15T00:30:46.968Z,19.50
2022-11-15T00:31:46.973Z,20.50
2022-11-15T00:32:46.946Z,23.20
2022-11-15T00:33:46.968Z,21.30
2022-11-15T00:34:46.971Z,20.60
2022-11-15T00:35:46.916Z,20.50
2022-11-15T00:36:46.907Z,21.90
2022-11-15T00:37:46.894Z,24.90
2022-11-15T00:38:46.894Z,22.50
2022-11-15T00:39:46.891Z,20.20
2022-11-15T00:40:46.864Z,19.60
2022-11-15T00:41:46.859Z,25.50
2022-11-15T00:42:46.847Z,25.30
2022-11-15T00:43:46.854Z,20.80
2022-11-15T00:44:46.834Z,20.60
2022-11-15T00:45:46.803Z,19.50
2022-11-15T00:46:46.809Z,22.10
2022-11-15T00:47:46.795Z,19.10
2022-11-15T00:48:46.790Z,19.10
2022-11-15T00:49:46.782Z,20.30
2022-11-15T00:50:46.775Z,18.00
2022-11-15T00:51:46.756Z,22.30
2022-11-15T00:52:46.751Z,20.00
2022-11-15T00:53:46.749Z,22.70
2022-11-15T00:54:46.726Z,23.10
2022-11-15T00:55:46.732Z,20.30
2022-11-15T00:56:46.703Z,24.30
2022-11-15T00:57:46.722Z,18.40
2022-11-15T00:58:46.778Z,22.00
2022-11-15T00:59:46.661Z,20.70
2022-11-15T01:00:46.751Z,18.90
2022-11-15T01:01:46.674Z,21.90
2022-11-15T01:02:46.678Z,25.10
2022-11-15T01:03:46.690Z,22.90
2022-11-15T01:04:46.614Z,22.80
2022-11-15T01:05:46.605Z,20.90
2022-11-15T01:06:46.650Z,21.50
2022-11-15T01:07:46.608Z,20.40
2022-11-15T01:08:46.577Z,22.70
2022-11-15T01:09:46.578Z,20.00
2022-11-15T01:10:46.558Z,21.00
2022-11-15T01:11:46.533Z,22.40
2022-11-15T01:12:46.539Z,16.40
2022-11-15T01:13:46.512Z,22.10
2022-11-15T01:14:46.516Z,21.70
2022-11-15T01:15:46.550Z,22.30
2022-11-15T01:16:46.492Z,22.20
2022-11-15T01:17:46.483Z,26.00
2022-11-15T01:18:46.466Z,20.80
2022-11-15T01:19:46.451Z,21.10
2022-11-15T01:20:46.477Z,21.50
2022-11-15T01:21:46.434Z,25.30
2022-11-15T01:22:46.434Z,19.90
2022-11-15T01:23:46.479Z,21.00
2022-11-15T01:24:46.403Z,23.20
2022-11-15T01:25:46.413Z,21.80
2022-11-15T01:26:46.388Z,19.80
2022-11-15T01:27:46.407Z,19.10
2022-11-15T01:28:46.489Z,24.00
2022-11-15T01:29:46.349Z,28.50
2022-11-15T01:30:46.423Z,21.20
2022-11-15T01:31:46.339Z,20.40
2022-11-15T01:32:46.365Z,20.90
2022-11-15T01:33:46.360Z,18.10
2022-11-15T01:34:46.295Z,21.80
2022-11-15T01:35:46.290Z,22.80
2022-11-15T01:36:46.276Z,19.90
2022-11-15T01:37:46.267Z,22.80
2022-11-15T01:38:46.277Z,24.50
2022-11-15T01:39:46.309Z,22.20
2022-11-15T01:40:46.234Z,23.50
2022-11-15T01:41:46.225Z,21.60
2022-11-15T01:42:46.212Z,21.70
2022-11-15T01:43:46.229Z,23.70
2022-11-15T01:44:46.191Z,24.20
2022-11-15T01:45:46.203Z,22.40
2022-11-15T01:46:46.186Z,22.00
2022-11-15T01:47:46.250Z,23.90
2022-11-15T01:48:46.215Z,22.50
2022-11-15T01:49:46.168Z,22.70
2022-11-15T01:50:46.162Z,21.90
2022-11-15T01:51:46.126Z,23.10
2022-11-15T01:52:46.133Z,20.50
2022-11-15T01:53:46.143Z,19.10
2022-11-15T01:54:46.085Z,21.50
2022-11-15T01:55:46.092Z,20.30
2022-11-15T01:56:46.095Z,21.80
2022-11-15T01:57:46.081Z,21.90
2022-11-15T01:58:46.053Z,20.70
2022-11-15T01:59:46.047Z,21.30
2022-11-15T02:00:46.129Z,20.70
2022-11-15T02:01:46.042Z,21.80
2022-11-15T02:02:46.035Z,22.60
2022-11-15T02:03:46.007Z,20.30
2022-11-15T02:04:45.987Z,20.90
2022-11-15T02:05:45.985Z,23.50
2022-11-15T02:06:46.008Z,23.80
2022-11-15T02:07:45.985Z,20.50
2022-11-15T02:08:45.942Z,24.90
2022-11-15T02:09:45.964Z,22.20
2022-11-15T02:10:45.927Z,22.10
2022-11-15T02:11:45.928Z,20.60
2022-11-15T02:12:45.930Z,18.80
2022-11-15T02:13:45.911Z,20.80
2022-11-15T02:14:45.898Z,24.70
2022-11-15T02:15:45.961Z,18.80
2022-11-15T02:16:45.879Z,20.80
2022-11-15T02:17:45.873Z,21.50
2022-11-15T02:18:45.875Z,17.60
2022-11-15T02:19:45.831Z,19.00
2022-11-15T02:20:45.848Z,21.30
2022-11-15T02:21:45.825Z,21.00
2022-11-15T02:22:45.883Z,19.60
2022-11-15T02:23:45.792Z,19.40
2022-11-15T02:24:45.806Z,19.80
2022-11-15T02:25:45.786Z,18.40
2022-11-15T02:26:45.764Z,21.40
2022-11-15T02:27:45.764Z,21.60
2022-11-15T02:28:45.737Z,20.70
2022-11-15T02:29:45.739Z,19.40
2022-11-15T02:30:45.727Z,20.70
2022-11-15T02:31:45.731Z,24.00
2022-11-15T02:32:45.746Z,21.10
2022-11-15T02:33:45.737Z,23.40
2022-11-15T02:34:45.668Z,23.30
2022-11-15T02:35:45.667Z,23.60
2022-11-15T02:36:45.664Z,21.00
2022-11-15T02:37:45.690Z,21.10
2022-11-15T02:38:45.632Z,20.70
2022-11-15T02:39:45.647Z,24.20
2022-11-15T02:40:45.606Z,25.90
2022-11-15T02:41:45.603Z,20.50
2022-11-15T02:42:45.664Z,22.10
2022-11-15T02:43:45.595Z,23.00
2022-11-15T02:44:45.632Z,23.40
2022-11-15T02:45:45.571Z,20.00
2022-11-15T02:46:45.551Z,22.10
2022-11-15T02:47:45.566Z,20.40
2022-11-15T02:48:45.560Z,20.90
2022-11-15T02:49:45.530Z,25.40
2022-11-15T02:50:45.509Z,18.90
2022-11-15T02:51:45.564Z,19.50
2022-11-15T02:52:45.501Z,19.60
2022-11-15T02:53:45.498Z,20.30
2022-11-15T02:54:45.475Z,22.20
2022-11-15T02:55:45.458Z,22.70
2022-11-15T02:56:45.482Z,19.60
2022-11-15T02:57:45.449Z,20.30
2022-11-15T02:58:45.434Z,23.70
2022-11-15T02:59:45.440Z,22.70
2022-11-15T03:00:45.464Z,23.10
2022-11-15T03:01:45.401Z,20.50
2022-11-15T03:02:45.428Z,19.90
2022-11-15T03:03:45.378Z,21.20
2022-11-15T03:04:45.388Z,21.30
2022-11-15T03:05:45.385Z,24.30
2022-11-15T03:06:45.355Z,22.80
2022-11-15T03:07:45.362Z,20.70
2022-11-15T03:08:45.315Z,23.00
2022-11-15T03:09:45.352Z,21.90
2022-11-15T03:10:45.301Z,22.60
2022-11-15T03:11:45.327Z,20.20
2022-11-15T03:12:45.291Z,20.80
2022-11-15T03:13:45.281Z,22.50
2022-11-15T03:14:45.259Z,21.80
2022-11-15T03:15:45.272Z,19.20
2022-11-15T03:16:45.237Z,23.10
2022-11-15T03:17:45.239Z,21.30
2022-11-15T03:18:45.248Z,23.80
2022-11-15T03:19:45.212Z,20.10
2022-11-15T03:20:45.200Z,18.90
2022-11-15T03:21:45.207Z,23.00
2022-11-15T03:22:45.200Z,22.20
2022-11-15T03:23:45.169Z,24.50
2022-11-15T03:24:45.158Z,22.00
2022-11-15T03:25:45.153Z,22.90
2022-11-15T03:26:45.130Z,21.30
2022-11-15T03:27:45.281Z,23.20
2022-11-15T03:28:45.125Z,18.30
2022-11-15T03:29:45.107Z,21.30
2022-11-15T03:30:45.094Z,20.50
2022-11-15T03:31:49.762Z,20.30
2022-11-15T03:32:45.098Z,21.90
2022-11-15T03:33:45.065Z,22.40
2022-11-15T03:34:45.052Z,28.20
2022-11-15T03:35:45.061Z,22.50
2022-11-15T03:36:45.084Z,21.80
2022-11-15T03:37:45.044Z,23.10
2022-11-15T03:38:45.010Z,24.00
2022-11-15T03:39:45.000Z,23.00
2022-11-15T03:40:45.079Z,22.00
2022-11-15T03:41:44.979Z,25.60
2022-11-15T03:42:44.974Z,21.40
2022-11-15T03:43:44.982Z,19.90
2022-11-15T03:44:44.944Z,21.90
2022-11-15T03:45:44.970Z,22.40
2022-11-15T03:46:44.926Z,22.30
2022-11-15T03:47:44.923Z,23.20
2022-11-15T03:48:44.922Z,20.70
2022-11-15T03:49:44.911Z,21.80
2022-11-15T03:50:44.889Z,21.90
2022-11-15T03:51:44.875Z,21.20
2022-11-15T03:52:44.863Z,27.50
2022-11-15T03:53:44.916Z,22.20
2022-11-15T03:54:44.901Z,20.30
2022-11-15T03:55:44.844Z,24.40
2022-11-15T03:56:44.833Z,22.00
2022-11-15T03:57:44.815Z,19.80
2022-11-15T03:58:44.815Z,24.40
2022-11-15T03:59:44.819Z,21.60
2022-11-15T04:00:44.875Z,20.80
2022-11-15T04:01:44.783Z,21.10
2022-11-15T04:02:44.762Z,22.20
2022-11-15T04:03:44.784Z,16.40
2022-11-15T04:04:44.760Z,20.10
2022-11-15T04:05:44.768Z,20.60
2022-11-15T04:06:44.804Z,22.10
2022-11-15T04:07:44.725Z,22.60
2022-11-15T04:08:44.732Z,17.50
2022-11-15T04:09:44.690Z,22.60
2022-11-15T04:10:44.695Z,24.40
2022-11-15T04:11:44.691Z,24.70
2022-11-15T04:12:44.690Z,19.90
2022-11-15T04:13:44.674Z,23.70
2022-11-15T04:14:44.639Z,23.00
2022-11-15T04:15:44.646Z,19.00
2022-11-15T04:16:44.613Z,21.30
2022-11-15T04:17:44.639Z,20.10
2022-11-15T04:18:44.603Z,23.80
2022-11-15T04:19:44.593Z,26.20
2022-11-15T04:20:44.590Z,20.50
2022-11-15T04:21:44.610Z,24.40
2022-11-15T04:22:44.561Z,23.90
2022-11-15T04:23:44.565Z,20.40
2022-11-15T04:24:44.533Z,19.90
2022-11-15T04:25:44.569Z,23.10
2022-11-15T04:26:44.514Z,22.10
2022-11-15T04:27:44.526Z,22.80
2022-11-15T04:28:44.489Z,21.80
2022-11-15T04:29:44.487Z,19.50
2022-11-15T04:30:44.552Z,17.20
2022-11-15T04:31:44.459Z,19.00
2022-11-15T04:32:44.461Z,19.80
2022-11-15T04:33:44.459Z,22.80
2022-11-15T04:34:44.425Z,24.10
2022-11-15T04:35:44.430Z,25.10
2022-11-15T04:36:44.420Z,21.80
2022-11-15T04:37:49.072Z,23.40
2022-11-15T04:38:44.434Z,23.20
2022-11-15T04:39:44.410Z,24.00
2022-11-15T04:40:44.362Z,22.20
2022-11-15T04:41:44.391Z,21.30
2022-11-15T04:42:44.354Z,22.00
2022-11-15T04:43:44.381Z,25.50
2022-11-15T04:44:44.331Z,24.90
2022-11-15T04:45:44.369Z,18.60
2022-11-15T04:46:44.306Z,24.20
2022-11-15T04:47:44.292Z,22.00
2022-11-15T04:48:44.371Z,23.60
2022-11-15T04:49:44.273Z,22.20
2022-11-15T04:50:44.270Z,24.80
2022-11-15T04:51:44.259Z,21.10
2022-11-15T04:52:44.246Z,23.90
2022-11-15T04:53:44.243Z,18.90
2022-11-15T04:54:44.246Z,21.30
2022-11-15T04:55:44.217Z,23.30
2022-11-15T04:56:44.207Z,20.50
2022-11-15T04:57:44.276Z,24.90
2022-11-15T04:58:44.178Z,20.30
2022-11-15T04:59:44.177Z,24.70
2022-11-15T05:00:44.216Z,20.10
2022-11-15T05:01:45.301Z,24.40
2022-11-15T05:02:44.178Z,20.10
2022-11-15T05:03:44.130Z,22.10
2022-11-15T05:04:44.116Z,23.10
2022-11-15T05:05:44.121Z,21.50
2022-11-15T05:06:44.124Z,26.90
2022-11-15T05:07:44.114Z,19.80
2022-11-15T05:08:44.105Z,17.90
2022-11-15T05:09:44.077Z,20.90
2022-11-15T05:10:44.055Z,32.00
2022-11-15T05:11:44.081Z,21.10
2022-11-15T05:12:44.053Z,26.20
2022-11-15T05:13:44.024Z,21.70
2022-11-15T05:14:44.010Z,22.80
2022-11-15T05:15:44.105Z,22.60
2022-11-15T05:16:43.993Z,27.00
2022-11-15T05:17:44.041Z,20.50
2022-11-15T05:18:43.977Z,20.60
2022-11-15T05:19:43.988Z,24.30
2022-11-15T05:20:44.018Z,21.90
2022-11-15T05:21:43.948Z,24.70
2022-11-15T05:22:43.924Z,20.30
2022-11-15T05:23:43.942Z,25.10
2022-11-15T05:24:43.968Z,18.50
2022-11-15T05:25:43.909Z,23.80
2022-11-15T05:26:43.912Z,21.70
2022-11-15T05:27:43.884Z,21.60
2022-11-15T05:28:43.879Z,21.10
2022-11-15T05:29:43.861Z,24.30
2022-11-15T05:30:43.864Z,20.60
2022-11-15T05:31:43.837Z,18.60
2022-11-15T05:32:43.837Z,22.20
2022-11-15T05:33:43.889Z,19.40
2022-11-15T05:34:43.808Z,21.20
2022-11-15T05:35:43.801Z,19.30
2022-11-15T05:36:43.801Z,20.60
2022-11-15T05:37:43.788Z,19.50
2022-11-15T05:38:43.788Z,20.80
2022-11-15T05:39:43.754Z,22.70
2022-11-15T05:40:43.741Z,21.80
2022-11-15T05:41:43.744Z,22.10
2022-11-15T05:42:43.782Z,21.90
2022-11-15T05:43:43.739Z,25.00
2022-11-15T05:44:43.762Z,21.80
2022-11-15T05:45:43.732Z,23.60
2022-11-15T05:46:43.717Z,19.60
2022-11-15T05:47:43.699Z,18.50
2022-11-15T05:48:43.678Z,22.80
2022-11-15T05:49:43.665Z,22.50
2022-11-15T05:50:43.691Z,24.30
2022-11-15T05:51:43.652Z,27.30
2022-11-15T05:52:43.633Z,20.20
2022-11-15T05:53:43.642Z,21.50
2022-11-15T05:54:43.571Z,20.00
2022-11-15T05:55:43.591Z,19.80
2022-11-15T05:56:43.602Z,22.70
2022-11-15T05:57:43.791Z,21.00
2022-11-15T05:58:43.920Z,20.40
2022-11-15T05:59:43.488Z,22.10
2022-11-15T06:00:43.890Z,32.70
2022-11-15T06:01:43.558Z,38.80
2022-11-15T06:02:43.636Z,23.70
2022-11-15T06:03:43.453Z,24.90
2022-11-15T06:04:43.449Z,18.00
2022-11-15T06:05:43.442Z,23.70
2022-11-15T06:06:43.420Z,24.20
2022-11-15T06:07:43.452Z,20.00
2022-11-15T06:08:43.438Z,19.50
2022-11-15T06:09:43.425Z,24.00
2022-11-15T06:10:43.383Z,23.20
2022-11-15T06:11:43.372Z,22.60
2022-11-15T06:12:43.358Z,20.10
2022-11-15T06:13:43.400Z,19.20
2022-11-15T06:14:43.344Z,19.50
2022-11-15T06:15:43.323Z,21.00
2022-11-15T06:16:43.328Z,22.10
2022-11-15T06:17:43.301Z,21.10
2022-11-15T06:18:43.436Z,20.40
2022-11-15T06:19:43.295Z,25.40
2022-11-15T06:20:43.291Z,21.70
2022-11-15T06:21:43.257Z,20.60
2022-11-15T06:22:43.261Z,22.40
2022-11-15T06:23:43.260Z,22.10
2022-11-15T06:24:43.259Z,25.20
2022-11-15T06:25:43.227Z,22.80
2022-11-15T06:26:43.212Z,22.60
2022-11-15T06:27:43.220Z,20.00
2022-11-15T06:28:44.230Z,21.50
2022-11-15T06:29:43.178Z,21.50
2022-11-15T06:30:43.174Z,19.50
2022-11-15T06:31:43.160Z,24.90
2022-11-15T06:32:44.182Z,21.60
2022-11-15T06:33:43.163Z,24.30
2022-11-15T06:34:43.138Z,24.80
2022-11-15T06:35:43.132Z,20.80
2022-11-15T06:36:43.108Z,19.70
2022-11-15T06:37:43.098Z,21.40
2022-11-15T06:38:43.103Z,22.50
2022-11-15T06:39:43.079Z,23.90
2022-11-15T06:40:43.072Z,22.80
2022-11-15T06:41:43.053Z,18.30
2022-11-15T06:42:43.043Z,21.70
2022-11-15T06:43:43.048Z,19.10
2022-11-15T06:44:43.049Z,22.20
2022-11-15T06:45:43.013Z,25.20
2022-11-15T06:46:43.031Z,23.10
2022-11-15T06:47:42.989Z,31.80
2022-11-15T06:48:42.999Z,69.60
2022-11-15T06:49:42.976Z,26.40
2022-11-15T06:50:42.964Z,25.10
2022-11-15T06:51:42.953Z,22.20
2022-11-15T06:52:42.947Z,23.40
2022-11-15T06:53:42.940Z,23.70
2022-11-15T06:54:42.945Z,20.00
2022-11-15T06:55:42.923Z,22.90
2022-11-15T06:56:42.907Z,24.30
2022-11-15T06:57:42.895Z,21.80
2022-11-15T06:58:42.898Z,25.00
2022-11-15T06:59:42.880Z,23.90
2022-11-15T07:00:42.861Z,23.80
2022-11-15T07:01:42.885Z,22.40
2022-11-15T07:02:42.841Z,25.80
2022-11-15T07:03:42.848Z,19.70
2022-11-15T07:04:42.821Z,20.90
2022-11-15T07:05:42.811Z,21.20
2022-11-15T07:06:42.936Z,22.10
2022-11-15T07:07:42.786Z,20.60
2022-11-15T07:08:42.857Z,22.80
2022-11-15T07:09:42.769Z,22.60
2022-11-15T07:10:42.758Z,21.10
2022-11-15T07:11:42.756Z,20.60
2022-11-15T07:12:42.734Z,21.80
2022-11-15T07:13:42.822Z,19.70
2022-11-15T07:14:42.720Z,23.70
2022-11-15T07:15:42.699Z,19.60
2022-11-15T07:16:42.708Z,27.40
2022-11-15T07:17:42.688Z,24.70
2022-11-15T07:18:42.701Z,22.20
2022-11-15T07:19:42.699Z,21.60
2022-11-15T07:20:42.656Z,20.90
2022-11-15T07:21:42.636Z,22.90
2022-11-15T07:22:42.632Z,22.40
2022-11-15T07:23:42.632Z,23.50
2022-11-15T07:24:42.633Z,21.10
2022-11-15T07:25:42.596Z,24.60
2022-11-15T07:26:42.614Z,23.50
2022-11-15T07:27:42.575Z,22.20
2022-11-15T07:28:42.582Z,19.40
2022-11-15T07:29:42.552Z,22.50
2022-11-15T07:30:45.229Z,25.70
2022-11-15T07:31:42.539Z,38.20
2022-11-15T07:32:42.578Z,50.60
2022-11-15T07:33:42.533Z,42.80
2022-11-15T07:34:42.513Z,31.00
2022-11-15T07:35:42.506Z,23.60
2022-11-15T07:36:42.485Z,20.00
2022-11-15T07:37:42.479Z,19.80
2022-11-15T07:38:43.221Z,23.00
2022-11-15T07:39:42.458Z,19.30
2022-11-15T07:40:42.453Z,22.00
2022-11-15T07:41:42.433Z,25.80
2022-11-15T07:42:42.433Z,20.50
2022-11-15T07:43:42.553Z,22.50
2022-11-15T07:44:42.402Z,21.40
2022-11-15T07:45:42.386Z,19.80
2022-11-15T07:46:42.385Z,22.60
2022-11-15T07:47:42.365Z,23.10
2022-11-15T07:48:45.119Z,24.10
2022-11-15T07:49:42.347Z,24.00
2022-11-15T07:50:42.366Z,23.80
2022-11-15T07:51:42.337Z,21.20
2022-11-15T07:52:42.316Z,20.80
2022-11-15T07:53:42.345Z,21.10
2022-11-15T07:54:42.385Z,19.80
2022-11-15T07:55:42.288Z,23.40
2022-11-15T07:56:42.310Z,19.90
2022-11-15T07:57:42.266Z,22.30
2022-11-15T07:58:42.265Z,17.60
2022-11-15T07:59:42.260Z,22.10
2022-11-15T08:01:36.371Z,22.80
2022-11-15T08:02:37.313Z,22.10
2022-11-15T08:03:37.232Z,22.30
2022-11-15T08:04:37.238Z,20.50
2022-11-15T08:05:37.238Z,24.10
2022-11-15T08:06:37.186Z,19.30
2022-11-15T08:07:37.312Z,23.90
2022-11-15T08:08:37.165Z,20.50
2022-11-15T08:09:37.176Z,24.00
2022-11-15T08:10:40.649Z,20.30
2022-11-15T08:11:37.160Z,22.20
2022-11-15T08:12:37.199Z,23.40
2022-11-15T08:13:37.136Z,21.00
2022-11-15T08:14:37.217Z,24.00
2022-11-15T08:15:37.096Z,23.10
2022-11-15T08:16:37.102Z,21.00
2022-11-15T08:17:37.128Z,20.90
2022-11-15T08:18:37.092Z,21.90
2022-11-15T08:19:37.067Z,18.80
2022-11-15T08:20:37.044Z,20.50
2022-11-15T08:21:37.039Z,21.50
2022-11-15T08:22:37.018Z,20.00
2022-11-15T08:23:37.017Z,18.20
2022-11-15T08:24:37.012Z,20.30
2022-11-15T08:25:36.998Z,19.40
2022-11-15T08:26:36.984Z,22.60
2022-11-15T08:27:37.033Z,19.40
2022-11-15T08:28:36.952Z,22.00
2022-11-15T08:29:37.012Z,18.80
2022-11-15T08:30:37.483Z,18.20
2022-11-15T08:31:37.025Z,18.60
2022-11-15T08:32:36.914Z,23.70
2022-11-15T08:33:36.915Z,18.50
2022-11-15T08:34:36.925Z,19.50
2022-11-15T08:35:36.954Z,21.00
2022-11-15T08:36:43.245Z,22.40
2022-11-15T08:37:36.892Z,18.60
2022-11-15T08:38:36.847Z,19.50
2022-11-15T08:39:36.873Z,21.80
2022-11-15T08:40:36.842Z,21.90
2022-11-15T08:41:36.843Z,21.00
2022-11-15T08:42:36.810Z,21.60
2022-11-15T08:43:36.892Z,19.10
2022-11-15T08:44:36.815Z,22.40
2022-11-15T08:45:36.808Z,21.40
2022-11-15T08:46:36.783Z,23.00
2022-11-15T08:47:36.766Z,16.90
2022-11-15T08:48:36.823Z,20.10
2022-11-15T08:49:36.751Z,18.20
2022-11-15T08:50:36.750Z,21.10
2022-11-15T08:51:36.733Z,18.90
2022-11-15T08:52:36.714Z,22.70
2022-11-15T08:53:36.704Z,20.30
2022-11-15T08:54:36.751Z,20.70
2022-11-15T08:55:36.685Z,21.10
2022-11-15T08:56:36.666Z,21.70
2022-11-15T08:57:36.693Z,19.00
2022-11-15T08:58:36.659Z,23.20
2022-11-15T08:59:36.663Z,18.20
2022-11-15T09:00:36.672Z,20.80
2022-11-15T09:01:36.656Z,20.50
2022-11-15T09:02:36.598Z,20.80
2022-11-15T09:03:36.607Z,21.80
2022-11-15T09:04:36.659Z,21.60
2022-11-15T09:05:36.597Z,21.20
2022-11-15T09:06:40.820Z,20.60
2022-11-15T09:07:36.608Z,18.70
2022-11-15T09:08:51.967Z,21.10
2022-11-15T09:09:36.577Z,18.30
2022-11-15T09:10:36.529Z,18.70
2022-11-15T09:11:36.517Z,16.30
2022-11-15T09:12:36.504Z,19.40
2022-11-15T09:13:36.497Z,24.70
2022-11-15T09:14:36.486Z,22.40
2022-11-15T09:15:36.477Z,21.60
2022-11-15T09:16:36.479Z,23.20
2022-11-15T09:17:36.479Z,21.60
2022-11-15T09:18:36.434Z,18.10
2022-11-15T09:19:36.424Z,18.00
2022-11-15T09:20:36.439Z,20.20
2022-11-15T09:21:36.402Z,17.20
2022-11-15T09:22:36.388Z,19.50
2022-11-15T09:23:36.398Z,19.20
2022-11-15T09:24:36.391Z,20.90
2022-11-15T09:25:36.373Z,19.80
2022-11-15T09:26:36.351Z,20.40
2022-11-15T09:27:36.344Z,19.80
2022-11-15T09:28:36.605Z,17.50
2022-11-15T09:29:36.318Z,19.10
2022-11-15T09:30:36.373Z,20.60
2022-11-15T09:31:36.321Z,23.00
2022-11-15T09:32:39.199Z,18.80
2022-11-15T09:33:36.287Z,17.90
2022-11-15T09:34:36.267Z,20.20
2022-11-15T09:35:36.270Z,18.60
2022-11-15T09:36:36.236Z,20.40
2022-11-15T09:37:36.234Z,16.80
2022-11-15T09:38:36.237Z,21.40
2022-11-15T09:39:36.223Z,20.10
2022-11-15T09:40:36.255Z,18.60
2022-11-15T09:41:36.188Z,19.90
2022-11-15T09:42:36.196Z,18.30
2022-11-15T09:43:36.172Z,19.00
2022-11-15T09:44:36.156Z,17.60
2022-11-15T09:45:36.160Z,17.20
2022-11-15T09:46:36.145Z,17.90
2022-11-15T09:47:36.120Z,19.70
2022-11-15T09:48:36.125Z,15.60
2022-11-15T09:49:36.101Z,17.20
2022-11-15T09:50:36.123Z,18.60
2022-11-15T09:51:36.081Z,21.00
2022-11-15T09:52:36.085Z,19.30
2022-11-15T09:54:13.660Z,15.40
2022-11-15T09:55:36.089Z,14.50
2022-11-15T09:56:36.048Z,15.60
2022-11-15T09:57:36.024Z,16.90
2022-11-15T09:58:36.019Z,18.10
2022-11-15T09:59:35.991Z,17.00
2022-11-15T10:00:51.477Z,19.50
2022-11-15T10:01:36.002Z,18.50
2022-11-15T10:02:35.988Z,19.00
2022-11-15T10:03:35.986Z,15.70
2022-11-15T10:04:35.946Z,16.10
2022-11-15T10:05:35.942Z,20.00
2022-11-15T10:06:35.929Z,18.00
2022-11-15T10:07:36.016Z,16.50
2022-11-15T10:08:36.187Z,14.40
2022-11-15T10:09:35.904Z,16.20
2022-11-15T10:10:35.910Z,14.20
2022-11-15T10:11:37.669Z,16.40
2022-11-15T10:12:35.885Z,15.30
2022-11-15T10:13:35.862Z,17.00
2022-11-15T10:14:35.858Z,15.40
2022-11-15T10:15:35.849Z,14.70
2022-11-15T10:16:35.847Z,13.90
2022-11-15T10:17:35.801Z,15.90
2022-11-15T10:18:35.796Z,13.80
2022-11-15T10:19:35.823Z,14.70
2022-11-15T10:20:35.834Z,13.90
2022-11-15T10:21:35.804Z,14.30
2022-11-15T10:22:35.768Z,13.30
2022-11-15T10:23:35.736Z,15.50
2022-11-15T10:24:35.750Z,17.00
2022-11-15T10:25:35.735Z,15.30
2022-11-15T10:26:35.713Z,16.20
2022-11-15T10:27:35.758Z,20.00
2022-11-15T10:28:36.150Z,15.10
2022-11-15T10:29:35.678Z,17.70
2022-11-15T10:30:35.722Z,14.80
2022-11-15T10:31:35.815Z,15.60
2022-11-15T10:32:35.819Z,15.10
2022-11-15T10:33:35.648Z,17.00
2022-11-15T10:34:35.637Z,71.30
2022-11-15T10:35:35.639Z,45.20
2022-11-15T10:36:35.617Z,14.40
2022-11-15T10:37:35.606Z,17.30
2022-11-15T10:38:35.596Z,15.10
2022-11-15T10:39:35.575Z,15.50
2022-11-15T10:40:35.636Z,13.40
2022-11-15T10:41:35.599Z,15.80
2022-11-15T10:42:35.574Z,14.50
2022-11-15T10:43:35.525Z,15.80
2022-11-15T10:44:35.525Z,13.80
2022-11-15T10:45:35.537Z,19.60
2022-11-15T10:46:50.879Z,13.70
2022-11-15T10:47:39.570Z,17.40
2022-11-15T10:48:35.480Z,15.70
2022-11-15T10:49:35.500Z,14.30
2022-11-15T10:50:35.473Z,13.00
2022-11-15T10:51:35.445Z,13.30
2022-11-15T10:52:35.436Z,13.10
2022-11-15T10:53:35.432Z,14.20
2022-11-15T10:54:35.434Z,15.20
2022-11-15T10:55:35.411Z,11.80
2022-11-15T10:56:35.393Z,12.90
2022-11-15T10:57:35.384Z,13.70
2022-11-15T10:58:35.688Z,12.80
2022-11-15T10:59:39.027Z,15.40
2022-11-15T11:00:35.383Z,12.60
2022-11-15T11:01:35.369Z,14.50
2022-11-15T11:02:35.347Z,11.30
2022-11-15T11:03:35.316Z,13.00
2022-11-15T11:04:35.338Z,11.70
2022-11-15T11:05:41.314Z,12.80
2022-11-15T11:06:35.300Z,14.50
2022-11-15T11:07:35.466Z,11.20
2022-11-15T11:08:35.277Z,10.40
2022-11-15T11:09:35.247Z,17.60
2022-11-15T11:10:52.373Z,15.40
2022-11-15T11:11:35.258Z,11.80
2022-11-15T11:12:35.222Z,15.70
2022-11-15T11:13:35.226Z,15.60
2022-11-15T11:14:35.201Z,12.90
2022-11-15T11:15:35.195Z,14.90
2022-11-15T11:16:38.896Z,11.40
2022-11-15T11:17:35.191Z,15.90
2022-11-15T11:18:35.403Z,15.20
2022-11-15T11:19:35.159Z,17.40
2022-11-15T11:20:35.146Z,12.40
2022-11-15T11:21:39.827Z,14.50
2022-11-15T11:22:35.118Z,11.90
2022-11-15T11:23:35.283Z,13.20
2022-11-15T11:24:35.109Z,14.10
2022-11-15T11:25:35.097Z,12.80
2022-11-15T11:26:35.073Z,11.80
2022-11-15T11:27:35.071Z,12.50
2022-11-15T11:28:35.199Z,13.00
2022-11-15T11:29:35.052Z,14.00
2022-11-15T11:30:35.052Z,14.50
2022-11-15T11:31:35.015Z,13.90
2022-11-15T11:32:35.008Z,15.00
2022-11-15T11:33:35.004Z,15.50
2022-11-15T11:34:34.989Z,12.30
2022-11-15T11:35:35.077Z,13.20
2022-11-15T11:36:34.989Z,13.00
2022-11-15T11:37:34.955Z,14.20
2022-11-15T11:38:35.006Z,12.80
2022-11-15T11:39:34.955Z,12.40
2022-11-15T11:40:34.936Z,16.20
2022-11-15T11:41:34.909Z,14.10
2022-11-15T11:42:34.910Z,15.40
2022-11-15T11:43:34.889Z,13.60
2022-11-15T11:44:34.885Z,12.90
2022-11-15T11:45:34.880Z,12.10
2022-11-15T11:46:34.866Z,16.20
2022-11-15T11:47:34.848Z,16.20
2022-11-15T11:48:35.020Z,16.70
2022-11-15T11:49:34.819Z,11.90
2022-11-15T11:50:34.830Z,13.40
2022-11-15T11:51:34.816Z,12.80
2022-11-15T11:52:34.806Z,16.10
2022-11-15T11:53:34.798Z,12.70
2022-11-15T11:54:34.791Z,13.90
2022-11-15T11:55:34.773Z,15.60
2022-11-15T11:56:34.761Z,17.20
2022-11-15T11:57:34.739Z,14.60
2022-11-15T11:58:34.894Z,13.40
2022-11-15T11:59:34.721Z,12.50
2022-11-15T12:00:34.726Z,12.20
2022-11-15T12:01:34.751Z,15.20
2022-11-15T12:02:34.859Z,14.90
2022-11-15T12:03:34.690Z,13.80
2022-11-15T12:04:34.668Z,14.20
2022-11-15T12:05:34.674Z,13.30
2022-11-15T12:06:34.647Z,11.80
2022-11-15T12:07:34.738Z,16.30
2022-11-15T12:08:35.161Z,12.90
2022-11-15T12:09:34.627Z,13.00
2022-11-15T12:10:34.630Z,13.00
2022-11-15T12:11:34.588Z,12.10
2022-11-15T12:12:34.613Z,13.00
2022-11-15T12:13:34.626Z,14.70
2022-11-15T12:14:34.601Z,14.30
2022-11-15T12:15:34.606Z,16.60
2022-11-15T12:16:34.555Z,13.50
2022-11-15T12:17:34.561Z,12.80
2022-11-15T12:18:34.743Z,13.30
2022-11-15T12:19:34.506Z,14.90
2022-11-15T12:20:34.532Z,13.30
2022-11-15T12:21:34.489Z,13.90
2022-11-15T12:22:34.476Z,15.20
2022-11-15T12:23:34.497Z,12.10
2022-11-15T12:24:34.472Z,14.40
2022-11-15T12:25:34.459Z,15.10
2022-11-15T12:26:34.433Z,17.20
2022-11-15T12:27:34.425Z,16.10
2022-11-15T12:28:34.656Z,16.40
2022-11-15T12:29:34.457Z,15.00
2022-11-15T12:30:34.439Z,15.60
2022-11-15T12:31:34.404Z,15.80
2022-11-15T12:32:34.373Z,16.50
2022-11-15T12:33:34.362Z,16.40
2022-11-15T12:34:34.364Z,16.80
2022-11-15T12:35:34.349Z,12.30
2022-11-15T12:36:34.327Z,13.60
2022-11-15T12:37:34.320Z,20.10
2022-11-15T12:38:34.616Z,15.20
2022-11-15T12:39:34.289Z,13.10
2022-11-15T12:40:34.295Z,15.30
2022-11-15T12:41:34.276Z,19.00
2022-11-15T12:42:34.262Z,14.10
2022-11-15T12:43:34.263Z,15.40
2022-11-15T12:44:34.240Z,12.30
2022-11-15T12:45:34.239Z,12.10
2022-11-15T12:46:34.223Z,13.30
2022-11-15T12:47:34.211Z,14.50
2022-11-15T12:48:34.568Z,15.00
2022-11-15T12:49:34.189Z,12.70
2022-11-15T12:50:34.204Z,14.70
2022-11-15T12:51:34.170Z,13.90
2022-11-15T12:52:34.155Z,11.60
2022-11-15T12:53:34.145Z,14.20
2022-11-15T12:54:34.145Z,11.50